createdAt,value
2019-04-10T00:02:29.288Z,77.10
2019-04-10T00:04:57.679Z,77.10
2019-04-10T00:07:25.996Z,77.10
2019-04-10T00:09:55.127Z,77.20
2019-04-10T00:12:23.661Z,77.00
2019-04-10T00:14:52.549Z,77.10
2019-04-10T00:17:20.979Z,77.10
2019-04-10T00:19:49.313Z,77.40
2019-04-10T00:22:17.996Z,77.30
2019-04-10T00:24:46.486Z,77.50
2019-04-10T00:27:14.761Z,77.50
2019-04-10T00:29:43.003Z,77.60
2019-04-10T00:32:11.945Z,77.80
2019-04-10T00:34:40.334Z,77.90
2019-04-10T00:37:21.292Z,78.00
2019-04-10T00:39:38.991Z,77.90
2019-04-10T00:42:08.418Z,77.90
2019-04-10T00:44:37.513Z,77.90
2019-04-10T00:47:06.583Z,77.80
2019-04-10T00:49:35.029Z,77.80
2019-04-10T00:52:03.874Z,77.70
2019-04-10T00:54:33.062Z,77.50
2019-04-10T00:57:01.429Z,77.40
2019-04-10T00:59:30.380Z,77.50
2019-04-10T01:01:58.713Z,77.50
2019-04-10T01:04:27.025Z,77.30
2019-04-10T01:06:55.345Z,77.30
2019-04-10T01:09:23.729Z,77.10
2019-04-10T01:11:52.146Z,77.70
2019-04-10T01:14:21.277Z,78.40
2019-04-10T01:16:49.770Z,77.80
2019-04-10T01:19:18.020Z,77.90
2019-04-10T01:21:46.482Z,77.70
2019-04-10T01:24:14.835Z,77.70
2019-04-10T01:26:43.316Z,77.60
2019-04-10T01:29:11.683Z,77.60
2019-04-10T01:31:39.926Z,77.50
2019-04-10T01:34:09.361Z,77.60
2019-04-10T01:36:37.848Z,77.60
2019-04-10T01:39:08.750Z,77.30
2019-04-10T01:41:37.204Z,77.70
2019-04-10T01:44:05.705Z,77.80
2019-04-10T01:46:35.831Z,77.70
2019-04-10T01:49:05.070Z,77.40
2019-04-10T01:51:33.688Z,77.20
2019-04-10T01:54:02.690Z,77.40
2019-04-10T01:56:33.716Z,77.30
2019-04-10T01:59:01.368Z,77.00
2019-04-10T02:01:32.457Z,77.00
2019-04-10T02:04:00.881Z,76.90
2019-04-10T02:06:29.453Z,77.00
2019-04-10T02:08:58.354Z,77.10
2019-04-10T02:11:27.977Z,77.20
2019-04-10T02:13:56.832Z,77.00
2019-04-10T02:16:25.616Z,76.80
2019-04-10T02:18:54.147Z,76.80
2019-04-10T02:21:23.438Z,77.10
2019-04-10T02:23:52.407Z,77.10
2019-04-10T02:26:21.317Z,77.70
2019-04-10T02:28:49.726Z,76.90
2019-04-10T02:31:19.153Z,76.90
2019-04-10T02:33:49.542Z,76.70
2019-04-10T02:36:19.392Z,76.70
2019-04-10T02:38:59.645Z,77.00
2019-04-10T02:41:19.240Z,77.20
2019-04-10T02:43:47.659Z,78.00
2019-04-10T02:46:15.919Z,77.30
2019-04-10T02:48:44.649Z,77.40
2019-04-10T02:51:13.700Z,77.70
2019-04-10T02:53:43.699Z,77.70
2019-04-10T02:56:13.527Z,77.50
2019-04-10T02:58:42.695Z,77.50
2019-04-10T03:01:11.370Z,77.60
2019-04-10T03:03:40.338Z,78.00
2019-04-10T03:06:09.233Z,78.00
2019-04-10T03:08:55.236Z,78.20
2019-04-10T03:11:11.586Z,78.30
2019-04-10T03:13:38.141Z,78.30
2019-04-10T03:16:07.538Z,78.20
2019-04-10T03:18:36.846Z,78.30
2019-04-10T03:21:05.162Z,78.20
2019-04-10T03:23:33.631Z,78.20
2019-04-10T03:26:02.091Z,78.20
2019-04-10T03:28:31.984Z,78.10
2019-04-10T03:31:02.271Z,78.90
2019-04-10T03:33:34.867Z,78.80
2019-04-10T03:36:03.103Z,78.90
2019-04-10T03:38:32.174Z,78.60
2019-04-10T03:41:00.507Z,78.70
2019-04-10T03:43:29.874Z,78.90
2019-04-10T03:45:59.120Z,78.80
2019-04-10T03:48:27.607Z,79.10
2019-04-10T03:50:57.123Z,78.90
2019-04-10T03:53:26.436Z,78.90
2019-04-10T03:55:54.747Z,78.80
2019-04-10T03:58:23.191Z,78.70
2019-04-10T04:00:52.195Z,78.60
2019-04-10T04:03:20.668Z,78.50
2019-04-10T04:05:48.977Z,78.60
2019-04-10T04:08:17.254Z,78.60
2019-04-10T04:10:45.528Z,78.20
2019-04-10T04:13:13.772Z,77.50
2019-04-10T04:15:42.188Z,76.20
2019-04-10T04:18:10.937Z,74.20
2019-04-10T04:20:39.295Z,72.90
2019-04-10T04:23:07.554Z,72.60
2019-04-10T04:25:36.605Z,72.20
2019-04-10T04:28:05.006Z,72.00
2019-04-10T04:30:34.075Z,71.80
2019-04-10T04:33:02.538Z,71.20
2019-04-10T04:35:31.278Z,71.10
2019-04-10T04:38:00.453Z,70.80
2019-04-10T04:40:29.951Z,70.10
2019-04-10T04:42:58.434Z,70.10
2019-04-10T04:45:27.614Z,70.00
2019-04-10T04:47:56.207Z,69.80
2019-04-10T04:50:24.719Z,69.60
2019-04-10T04:52:53.664Z,69.60
2019-04-10T04:55:22.027Z,69.50
2019-04-10T04:57:50.284Z,69.30
2019-04-10T05:00:18.618Z,69.40
2019-04-10T05:02:47.066Z,69.20
2019-04-10T05:05:16.415Z,69.60
2019-04-10T05:07:54.741Z,69.80
2019-04-10T05:10:15.385Z,69.60
2019-04-10T05:12:43.823Z,69.30
2019-04-10T05:15:12.976Z,69.00
2019-04-10T05:17:41.600Z,69.20
2019-04-10T05:20:09.923Z,68.90
2019-04-10T05:22:38.189Z,68.80
2019-04-10T05:25:06.927Z,68.40
2019-04-10T05:27:35.308Z,68.10
2019-04-10T05:30:06.205Z,68.00
2019-04-10T05:32:35.366Z,67.80
2019-04-10T05:35:07.407Z,67.70
2019-04-10T05:37:35.904Z,68.00
2019-04-10T05:40:07.575Z,67.80
2019-04-10T05:42:36.019Z,67.90
2019-04-10T05:45:07.051Z,67.70
2019-04-10T05:47:36.533Z,67.70
2019-04-10T05:50:06.146Z,67.70
2019-04-10T05:52:35.338Z,67.60
2019-04-10T05:55:04.284Z,67.80
2019-04-10T05:57:32.902Z,67.80
2019-04-10T06:00:01.323Z,68.50
2019-04-10T06:02:29.963Z,67.60
2019-04-10T06:04:58.396Z,67.10
2019-04-10T06:07:27.356Z,66.70
2019-04-10T06:10:02.013Z,66.80
2019-04-10T06:12:26.484Z,67.00
2019-04-10T06:14:54.774Z,67.00
2019-04-10T06:17:23.048Z,67.10
2019-04-10T06:19:51.343Z,66.70
2019-04-10T06:22:20.746Z,66.60
2019-04-10T06:24:49.147Z,66.90
2019-04-10T06:27:18.420Z,67.30
2019-04-10T06:29:47.661Z,66.60
2019-04-10T06:32:17.063Z,66.50
2019-04-10T06:34:46.062Z,66.30
2019-04-10T06:37:15.662Z,66.30
2019-04-10T06:39:44.998Z,66.60
2019-04-10T06:42:14.292Z,66.50
2019-04-10T06:44:42.603Z,66.10
2019-04-10T06:47:11.947Z,66.00
2019-04-10T06:49:40.676Z,65.80
2019-04-10T06:52:10.056Z,65.70
2019-04-10T06:54:38.571Z,65.80
2019-04-10T06:57:06.888Z,65.60
2019-04-10T06:59:35.183Z,65.60
2019-04-10T07:02:18.517Z,65.30
2019-04-10T07:04:44.241Z,65.40
2019-04-10T07:07:09.378Z,65.50
2019-04-10T07:09:33.832Z,65.60
2019-04-10T07:12:04.223Z,65.50
2019-04-10T07:14:35.098Z,65.90
2019-04-10T07:17:05.534Z,65.80
2019-04-10T07:19:32.422Z,65.60
2019-04-10T07:22:01.880Z,65.60
2019-04-10T07:24:34.527Z,65.40
2019-04-10T07:27:03.363Z,65.30
2019-04-10T07:29:31.139Z,65.30
2019-04-10T07:32:00.468Z,65.20
2019-04-10T07:34:29.950Z,65.40
2019-04-10T07:36:58.408Z,65.90
2019-04-10T07:39:29.512Z,65.50
2019-04-10T07:41:57.738Z,65.20
2019-04-10T07:44:26.241Z,64.80
2019-04-10T07:46:58.309Z,64.80
2019-04-10T07:49:29.652Z,64.70
2019-04-10T07:51:56.545Z,64.70
2019-04-10T07:54:24.926Z,64.40
2019-04-10T07:56:53.166Z,64.40
2019-04-10T07:59:21.650Z,64.70
2019-04-10T08:01:50.072Z,64.90
2019-04-10T08:04:18.361Z,64.90
2019-04-10T08:06:46.879Z,64.50
2019-04-10T08:09:15.216Z,64.40
2019-04-10T08:11:45.137Z,64.50
2019-04-10T08:14:13.388Z,64.30
2019-04-10T08:16:41.632Z,64.10
2019-04-10T08:19:10.407Z,64.30
2019-04-10T08:21:38.820Z,64.40
2019-04-10T08:24:07.398Z,64.80
2019-04-10T08:26:36.667Z,65.20
2019-04-10T08:29:05.727Z,65.50
2019-04-10T08:31:34.238Z,65.40
2019-04-10T08:34:03.282Z,65.80
2019-04-10T08:36:31.886Z,66.00
2019-04-10T08:39:00.398Z,66.20
2019-04-10T08:41:29.628Z,66.80
2019-04-10T08:43:58.879Z,67.20
2019-04-10T08:46:28.151Z,67.50
2019-04-10T08:48:56.493Z,68.00
2019-04-10T08:51:25.659Z,68.50
2019-04-10T08:53:55.625Z,69.00
2019-04-10T08:56:24.764Z,69.20
2019-04-10T08:58:53.109Z,69.00
2019-04-10T09:01:21.456Z,69.40
2019-04-10T09:03:51.509Z,69.20
2019-04-10T09:06:19.943Z,69.70
2019-04-10T09:08:48.921Z,69.80
2019-04-10T09:11:24.650Z,70.30
2019-04-10T09:13:47.226Z,70.10
2019-04-10T09:16:15.488Z,70.80
2019-04-10T09:18:43.740Z,70.20
2019-04-10T09:21:13.220Z,70.30
2019-04-10T09:23:47.293Z,70.50
2019-04-10T09:26:11.903Z,70.40
2019-04-10T09:28:40.265Z,70.20
2019-04-10T09:31:09.343Z,70.00
2019-04-10T09:33:38.951Z,70.30
2019-04-10T09:36:07.363Z,70.60
2019-04-10T09:38:36.840Z,70.00
2019-04-10T09:41:05.694Z,70.40
2019-04-10T09:43:34.086Z,70.50
2019-04-10T09:46:02.410Z,70.60
2019-04-10T09:48:31.611Z,71.10
2019-04-10T09:51:00.325Z,70.00
2019-04-10T09:53:28.797Z,69.30
2019-04-10T09:55:57.084Z,69.20
2019-04-10T09:58:26.190Z,69.70
2019-04-10T10:00:55.007Z,70.00
2019-04-10T10:03:24.125Z,70.20
2019-04-10T10:05:53.091Z,69.70
2019-04-10T10:08:22.544Z,69.60
2019-04-10T10:10:50.897Z,69.70
2019-04-10T10:13:19.306Z,69.70
2019-04-10T10:15:47.542Z,70.00
2019-04-10T10:18:15.813Z,69.70
2019-04-10T10:20:44.083Z,69.90
2019-04-10T10:23:12.314Z,69.50
2019-04-10T10:25:41.514Z,69.70
2019-04-10T10:28:11.713Z,69.60
2019-04-10T10:30:39.837Z,69.60
2019-04-10T10:33:08.127Z,69.10
2019-04-10T10:35:36.372Z,69.20
2019-04-10T10:38:05.402Z,69.20
2019-04-10T10:40:34.026Z,69.10
2019-04-10T10:43:02.535Z,69.20
2019-04-10T10:45:31.143Z,69.60
2019-04-10T10:47:59.512Z,69.50
2019-04-10T10:50:28.919Z,69.60
2019-04-10T10:52:57.609Z,70.00
2019-04-10T10:55:25.955Z,69.30
2019-04-10T10:57:55.337Z,69.80
2019-04-10T11:00:23.770Z,68.90
2019-04-10T11:02:52.034Z,68.50
2019-04-10T11:05:21.127Z,69.00
2019-04-10T11:07:49.456Z,68.70
2019-04-10T11:10:23.669Z,68.60
2019-04-10T11:12:48.372Z,69.50
2019-04-10T11:15:16.798Z,69.40
2019-04-10T11:17:46.062Z,69.50
2019-04-10T11:20:15.264Z,69.80
2019-04-10T11:22:43.613Z,69.70
2019-04-10T11:25:12.261Z,69.70
2019-04-10T11:27:42.093Z,70.10
2019-04-10T11:30:12.521Z,70.10
2019-04-10T11:32:42.255Z,70.20
2019-04-10T11:35:11.181Z,70.00
2019-04-10T11:37:44.588Z,70.20
2019-04-10T11:40:09.522Z,70.30
2019-04-10T11:42:39.782Z,70.40
2019-04-10T11:45:08.246Z,70.50
2019-04-10T11:47:38.859Z,70.60
2019-04-10T11:50:13.065Z,70.40
2019-04-10T11:52:42.519Z,70.70
2019-04-10T11:55:13.912Z,70.70
2019-04-10T11:57:37.876Z,71.00
2019-04-10T12:00:12.035Z,70.70
2019-04-10T12:02:39.435Z,70.80
2019-04-10T12:05:12.016Z,70.80
2019-04-10T12:08:00.512Z,71.20
2019-04-10T12:12:37.821Z,71.30
2019-04-10T12:15:08.029Z,70.30
2019-04-10T12:17:36.386Z,69.90
2019-04-10T12:20:06.937Z,69.10
2019-04-10T12:22:35.874Z,68.70
2019-04-10T12:25:05.639Z,68.20
2019-04-10T12:27:35.232Z,67.70
2019-04-10T12:30:06.852Z,67.20
2019-04-10T12:32:36.974Z,66.30
2019-04-10T12:35:06.852Z,66.60
2019-04-10T12:37:37.133Z,66.90
2019-04-10T12:40:07.344Z,67.00
2019-04-10T12:42:36.549Z,66.60
2019-04-10T12:45:06.226Z,66.40
2019-04-10T12:47:34.762Z,65.80
2019-04-10T12:50:05.711Z,66.10
2019-04-10T12:52:34.564Z,65.90
2019-04-10T12:55:03.935Z,66.30
2019-04-10T12:57:32.282Z,65.90
2019-04-10T13:00:04.033Z,64.90
2019-04-10T13:02:30.548Z,64.20
2019-04-10T13:04:58.842Z,64.30
2019-04-10T13:07:27.613Z,64.00
2019-04-10T13:09:55.996Z,64.20
2019-04-10T13:12:25.055Z,64.40
2019-04-10T13:14:53.437Z,64.40
2019-04-10T13:17:22.693Z,64.60
2019-04-10T13:19:51.410Z,64.80
2019-04-10T13:22:20.131Z,64.90
2019-04-10T13:24:48.438Z,64.80
2019-04-10T13:27:16.806Z,64.80
2019-04-10T13:29:45.051Z,64.70
2019-04-10T13:32:13.901Z,64.60
2019-04-10T13:34:42.341Z,63.80
2019-04-10T13:37:10.609Z,63.50
2019-04-10T13:39:39.245Z,63.70
2019-04-10T13:42:09.192Z,63.60
2019-04-10T13:44:38.392Z,63.70
2019-04-10T13:47:07.106Z,63.80
2019-04-10T13:49:35.743Z,63.60
2019-04-10T13:52:04.121Z,64.20
2019-04-10T13:54:32.585Z,64.00
2019-04-10T13:57:01.503Z,63.80
2019-04-10T13:59:31.062Z,63.90
2019-04-10T14:02:00.554Z,63.70
2019-04-10T14:04:31.243Z,63.90
2019-04-10T14:06:59.783Z,64.10
2019-04-10T14:09:35.878Z,64.60
2019-04-10T14:11:58.133Z,63.90
2019-04-10T14:14:26.726Z,63.90
2019-04-10T14:16:55.170Z,64.30
2019-04-10T14:19:23.787Z,63.60
2019-04-10T14:21:55.741Z,64.20
2019-04-10T14:24:24.950Z,63.60
2019-04-10T14:26:56.631Z,63.30
2019-04-10T14:29:25.289Z,63.50
2019-04-10T14:31:55.221Z,63.40
2019-04-10T14:34:23.469Z,63.30
2019-04-10T14:36:52.634Z,62.80
2019-04-10T14:39:21.778Z,62.70
2019-04-10T14:44:42.873Z,62.30
2019-04-10T14:47:13.336Z,62.40
2019-04-10T14:49:41.091Z,62.70
2019-04-10T14:52:10.655Z,62.40
2019-04-10T14:54:39.744Z,61.60
2019-04-10T14:57:08.095Z,62.30
2019-04-10T14:59:40.010Z,61.50
2019-04-10T15:02:10.562Z,61.80
2019-04-10T15:04:39.533Z,61.50
2019-04-10T15:07:08.135Z,61.80
2019-04-10T15:09:38.138Z,62.10
2019-04-10T15:12:07.274Z,62.00
2019-04-10T15:14:37.480Z,61.60
2019-04-10T15:17:06.608Z,62.00
2019-04-10T15:19:36.425Z,62.20
2019-04-10T15:22:04.949Z,62.00
2019-04-10T15:24:33.349Z,61.90
2019-04-10T15:27:02.742Z,62.10
2019-04-10T15:29:33.493Z,62.00
2019-04-10T15:32:06.338Z,61.50
2019-04-10T15:34:39.600Z,61.60
2019-04-10T15:37:08.861Z,61.80
2019-04-10T15:39:46.428Z,61.80
2019-04-10T15:45:08.434Z,62.30
2019-04-10T15:47:37.448Z,62.50
2019-04-10T15:50:07.155Z,62.70
2019-04-10T15:52:37.475Z,62.90
2019-04-10T15:55:05.980Z,63.10
2019-04-10T15:57:47.039Z,63.10
2019-04-10T16:00:08.630Z,63.40
2019-04-10T16:02:37.029Z,63.70
2019-04-10T16:05:07.110Z,64.50
2019-04-10T16:07:36.280Z,63.90
2019-04-10T16:10:13.494Z,64.10
2019-04-10T16:12:41.788Z,64.30
2019-04-10T16:18:01.797Z,64.90
2019-04-10T16:20:31.758Z,65.00
2019-04-10T16:23:10.728Z,65.00
2019-04-10T16:25:40.711Z,65.20
2019-04-10T16:28:11.040Z,65.40
2019-04-10T16:30:39.052Z,65.40
2019-04-10T16:33:07.322Z,65.70
2019-04-10T16:35:36.910Z,66.20
2019-04-10T16:38:06.911Z,66.10
2019-04-10T16:40:36.154Z,66.30
2019-04-10T16:43:06.103Z,66.50
2019-04-10T16:45:34.876Z,66.90
2019-04-10T16:48:03.463Z,66.80
2019-04-10T16:50:34.173Z,67.20
2019-04-10T16:53:03.357Z,67.60
2019-04-10T16:55:32.572Z,67.90
2019-04-10T16:58:01.251Z,68.40
2019-04-10T17:00:29.739Z,69.10
2019-04-10T17:02:57.990Z,69.40
2019-04-10T17:05:26.388Z,69.70
2019-04-10T17:07:55.279Z,69.80
2019-04-10T17:10:27.361Z,70.10
2019-04-10T17:12:55.603Z,70.70
2019-04-10T17:15:24.081Z,71.20
2019-04-10T17:17:55.015Z,71.50
2019-04-10T17:20:24.485Z,72.20
2019-04-10T17:22:54.256Z,72.60
2019-04-10T17:25:32.102Z,73.70
2019-04-10T17:28:01.655Z,74.40
2019-04-10T17:30:30.192Z,74.70
2019-04-10T17:32:58.452Z,74.10
2019-04-10T17:35:27.561Z,75.10
2019-04-10T17:37:56.203Z,75.40
2019-04-10T17:40:33.099Z,75.50
2019-04-10T17:42:54.909Z,75.30
2019-04-10T17:45:25.462Z,75.90
2019-04-10T17:47:56.460Z,75.20
2019-04-10T17:50:25.276Z,74.80
2019-04-10T17:52:53.725Z,75.00
2019-04-10T17:55:23.095Z,75.90
2019-04-10T17:57:54.385Z,76.50
2019-04-10T18:00:43.180Z,76.60
2019-04-10T18:03:13.027Z,76.30
2019-04-10T18:05:42.583Z,76.60
2019-04-10T18:08:11.107Z,76.80
2019-04-10T18:10:46.508Z,77.00
2019-04-10T18:13:09.432Z,77.30
2019-04-10T18:15:37.935Z,77.10
2019-04-10T18:18:07.325Z,76.10
2019-04-10T18:20:36.039Z,75.30
2019-04-10T18:23:04.376Z,75.10
2019-04-10T18:25:32.675Z,74.50
2019-04-10T18:28:01.199Z,73.60
2019-04-10T18:30:31.675Z,73.90
2019-04-10T18:33:00.229Z,73.90
2019-04-10T18:35:28.916Z,74.00
2019-04-10T18:37:58.641Z,74.80
2019-04-10T18:40:27.494Z,74.90
2019-04-10T18:42:58.104Z,74.50
2019-04-10T18:45:27.924Z,74.10
2019-04-10T18:47:56.481Z,73.30
2019-04-10T18:50:24.974Z,72.50
2019-04-10T18:52:53.948Z,72.80
2019-04-10T18:55:22.572Z,72.90
2019-04-10T18:57:51.428Z,73.10
2019-04-10T19:00:34.420Z,73.20
2019-04-10T19:03:07.558Z,73.40
2019-04-10T19:05:38.379Z,73.30
2019-04-10T19:08:07.057Z,73.30
2019-04-10T19:10:36.519Z,74.10
2019-04-10T19:13:05.550Z,73.60
2019-04-10T19:15:35.001Z,74.00
2019-04-10T19:18:03.694Z,73.90
2019-04-10T19:20:33.073Z,73.70
2019-04-10T19:23:01.495Z,74.10
2019-04-10T19:25:30.253Z,74.10
2019-04-10T19:27:58.765Z,73.30
2019-04-10T19:30:47.669Z,73.30
2019-04-10T19:33:16.222Z,73.60
2019-04-10T19:35:45.522Z,73.30
2019-04-10T19:38:13.883Z,72.90
2019-04-10T19:40:42.146Z,72.70
2019-04-10T19:43:10.508Z,72.80
2019-04-10T19:45:39.785Z,72.30
2019-04-10T19:48:08.997Z,72.60
2019-04-10T19:50:37.429Z,72.90
2019-04-10T19:53:05.736Z,72.90
2019-04-10T19:55:34.014Z,72.90
2019-04-10T19:58:02.280Z,73.00
2019-04-10T20:00:32.696Z,73.10
2019-04-10T20:03:01.504Z,73.10
2019-04-10T20:05:30.026Z,73.20
2019-04-10T20:07:59.530Z,73.10
2019-04-10T20:10:28.020Z,73.20
2019-04-10T20:12:57.212Z,73.80
2019-04-10T20:15:26.680Z,73.80
2019-04-10T20:17:55.186Z,74.00
2019-04-10T20:20:23.580Z,74.00
2019-04-10T20:22:51.878Z,74.00
2019-04-10T20:25:20.144Z,74.20
2019-04-10T20:27:48.469Z,74.50
2019-04-10T20:30:17.429Z,74.50
2019-04-10T20:32:46.082Z,74.40
2019-04-10T20:35:14.464Z,75.10
2019-04-10T20:37:42.992Z,75.10
2019-04-10T20:40:11.919Z,74.80
2019-04-10T20:42:40.463Z,74.10
2019-04-10T20:45:09.339Z,74.30
2019-04-10T20:47:37.771Z,73.90
2019-04-10T20:50:06.017Z,73.70
2019-04-10T20:52:34.674Z,73.80
2019-04-10T20:55:05.683Z,73.80
2019-04-10T20:57:35.262Z,73.90
2019-04-10T21:00:07.269Z,74.30
2019-04-10T21:02:36.215Z,74.30
2019-04-10T21:05:09.568Z,74.30
2019-04-10T21:07:37.375Z,74.10
2019-04-10T21:10:06.708Z,74.20
2019-04-10T21:12:35.012Z,74.20
2019-04-10T21:15:03.935Z,74.50
2019-04-10T21:17:42.330Z,74.50
2019-04-10T21:20:13.138Z,74.50
2019-04-10T21:22:40.776Z,74.60
2019-04-10T21:25:10.197Z,74.50
2019-04-10T21:27:39.662Z,74.60
2019-04-10T21:30:15.875Z,74.70
2019-04-10T21:32:49.547Z,74.70
2019-04-10T21:35:27.053Z,74.80
2019-04-10T21:37:55.526Z,74.70
2019-04-10T21:40:23.789Z,74.30
2019-04-10T21:42:52.069Z,74.20
2019-04-10T21:45:20.344Z,74.10
2019-04-10T21:47:48.660Z,73.80
2019-04-10T21:50:17.135Z,73.50
2019-04-10T21:52:47.592Z,73.60
2019-04-10T21:55:16.988Z,73.60
2019-04-10T21:57:45.441Z,73.60
2019-04-10T22:00:14.867Z,73.40
2019-04-10T22:02:45.009Z,73.50
2019-04-10T22:05:14.254Z,73.40
2019-04-10T22:07:50.319Z,73.40
2019-04-10T22:10:23.897Z,72.80
2019-04-10T22:12:52.739Z,73.40
2019-04-10T22:15:37.776Z,73.50
2019-04-10T22:18:07.172Z,73.40
2019-04-10T22:20:36.017Z,73.30
2019-04-10T22:23:04.438Z,73.50
2019-04-10T22:25:32.715Z,74.00
2019-04-10T22:28:01.049Z,73.60
2019-04-10T22:30:29.567Z,73.40
2019-04-10T22:32:57.939Z,73.20
2019-04-10T22:35:26.205Z,73.00
2019-04-10T22:37:54.508Z,73.10
2019-04-10T22:40:23.650Z,73.00
2019-04-10T22:42:53.171Z,73.00
2019-04-10T22:45:27.395Z,73.10
2019-04-10T22:47:56.353Z,73.00
2019-04-10T22:50:24.630Z,73.40
2019-04-10T22:52:52.963Z,73.10
2019-04-10T22:55:21.818Z,73.10
2019-04-10T22:57:50.567Z,73.30
2019-04-10T23:00:20.621Z,73.20
2019-04-10T23:02:49.191Z,73.40
2019-04-10T23:05:18.371Z,73.30
2019-04-10T23:07:47.226Z,73.50
2019-04-10T23:10:15.721Z,73.40
2019-04-10T23:12:52.277Z,73.20
2019-04-10T23:15:13.979Z,73.40
2019-04-10T23:17:43.185Z,73.60
2019-04-10T23:20:11.572Z,73.70
2019-04-10T23:22:41.059Z,73.70
2019-04-10T23:25:10.010Z,73.70
2019-04-10T23:27:38.448Z,73.50
2019-04-10T23:30:08.671Z,73.20
2019-04-10T23:32:37.491Z,73.20
2019-04-10T23:35:05.876Z,72.90
2019-04-10T23:37:35.033Z,72.80
2019-04-10T23:40:04.938Z,72.60
2019-04-10T23:42:33.307Z,72.50
2019-04-10T23:45:01.760Z,72.40
2019-04-10T23:47:30.184Z,72.20
2019-04-10T23:49:59.618Z,72.60
2019-04-10T23:52:28.077Z,72.60
2019-04-10T23:54:57.542Z,72.30
2019-04-10T23:57:25.892Z,72.60
2019-04-10T23:59:55.040Z,72.60
